Time;durP1;ratioP1;P1;durP2;ratioP2;P2;SDS_P1;SDS_P2;PMS_P1;PMS_P2;Temp;Humidity;BMP_temperature;BMP_pressure;BME280_temperature;BME280_humidity;BME280_pressure;Samples;Min_cycle;Max_cycle;Signal;HPM_P1;HPM_P2
2023/03/30 00:01:26;;;;;;;17.25;13.77;;;11.50;99.90;;;;;;4989204;28;20054;-83
2023/03/30 00:03:53;;;;;;;20.23;14.82;;;11.50;99.90;;;;;;5004793;28;20046;-83
2023/03/30 00:06:21;;;;;;;20.23;13.88;;;11.50;99.90;;;;;;4995822;28;20096;-84
2023/03/30 00:08:57;;;;;;;18.02;13.25;;;11.50;99.90;;;;;;4992404;28;20549;-83
2023/03/30 00:11:24;;;;;;;17.63;13.23;;;11.60;99.90;;;;;;4990342;28;20053;-83
2023/03/30 00:13:51;;;;;;;15.63;13.10;;;11.50;99.90;;;;;;4991293;28;20503;-83
2023/03/30 00:16:17;;;;;;;17.85;13.23;;;11.50;99.90;;;;;;5001234;28;20043;-83
2023/03/30 00:18:46;;;;;;;17.92;13.25;;;11.50;99.90;;;;;;4994155;28;20512;-83
2023/03/30 00:21:12;;;;;;;20.00;12.60;;;11.50;99.90;;;;;;4970844;28;20035;-83
2023/03/30 00:23:38;;;;;;;18.90;12.57;;;11.50;99.90;;;;;;5009417;28;20498;-83
2023/03/30 00:26:06;;;;;;;19.05;12.40;;;11.50;99.90;;;;;;5001725;28;20489;-83
2023/03/30 00:28:31;;;;;;;16.90;11.90;;;11.50;99.90;;;;;;4997953;28;20046;-83
2023/03/30 00:30:57;;;;;;;16.73;11.60;;;11.50;99.90;;;;;;4999327;28;20077;-83
2023/03/30 00:33:24;;;;;;;18.25;12.00;;;11.60;99.90;;;;;;5016261;28;20038;-83
2023/03/30 00:35:55;;;;;;;15.80;11.30;;;11.50;99.90;;;;;;4991760;28;20039;-83
2023/03/30 00:38:21;;;;;;;16.55;11.02;;;11.50;99.90;;;;;;4991731;28;20042;-83
2023/03/30 00:40:52;;;;;;;15.73;10.02;;;11.50;99.90;;;;;;4993182;28;20061;-84
2023/03/30 00:43:18;;;;;;;14.45;10.15;;;11.50;99.90;;;;;;5018771;28;20129;-84
2023/03/30 00:45:44;;;;;;;14.23;10.02;;;11.50;99.90;;;;;;4966352;28;20046;-83
2023/03/30 00:48:21;;;;;;;14.75;9.48;;;11.40;99.90;;;;;;4979661;28;20535;-83
2023/03/30 00:50:55;;;;;;;14.93;9.70;;;11.40;99.90;;;;;;4994086;28;20084;-83
2023/03/30 00:53:34;;;;;;;14.57;9.38;;;11.30;99.90;;;;;;4999775;28;20073;-84
2023/03/30 00:56:03;;;;;;;16.50;9.30;;;11.30;99.90;;;;;;5021715;28;20398;-84
2023/03/30 00:58:30;;;;;;;13.90;8.95;;;11.30;99.90;;;;;;4987660;28;20043;-83
2023/03/30 01:01:00;;;;;;;12.27;8.57;;;11.30;99.90;;;;;;5022558;28;20052;-83
2023/03/30 01:03:31;;;;;;;14.15;8.02;;;11.30;99.90;;;;;;5016135;28;20050;-83
2023/03/30 01:06:00;;;;;;;11.57;7.78;;;11.30;99.90;;;;;;5011689;28;20050;-83
2023/03/30 01:08:33;;;;;;;11.68;6.93;;;11.40;99.90;;;;;;4992229;28;20125;-84
2023/03/30 01:11:05;;;;;;;10.52;6.68;;;11.30;99.90;;;;;;4945009;28;20104;-84
2023/03/30 01:13:34;;;;;;;13.18;7.05;;;11.40;99.90;;;;;;4975963;28;20050;-83
2023/03/30 01:16:21;;;;;;;13.48;7.25;;;11.40;99.90;;;;;;5005412;28;20403;-83
2023/03/30 01:19:15;;;;;;;12.77;7.25;;;11.40;99.90;;;;;;4988045;28;20031;-83
2023/03/30 01:22:15;;;;;;;12.45;6.78;;;11.30;99.90;;;;;;4991717;28;20502;-83
2023/03/30 01:24:57;;;;;;;12.55;6.25;;;11.30;99.90;;;;;;4996035;28;20077;-83
2023/03/30 01:27:26;;;;;;;12.05;6.25;;;11.40;99.90;;;;;;4980568;28;20047;-83
2023/03/30 01:30:19;;;;;;;10.25;5.70;;;11.40;99.90;;;;;;4975205;28;20458;-83
2023/03/30 01:33:22;;;;;;;14.55;5.88;;;11.40;99.90;;;;;;5008370;28;20049;-83
2023/03/30 01:35:53;;;;;;;11.10;5.75;;;11.50;99.90;;;;;;5008387;28;20090;-83
2023/03/30 01:38:45;;;;;;;10.73;5.93;;;11.60;99.90;;;;;;4974827;28;20039;-84
2023/03/30 01:41:29;;;;;;;11.48;6.45;;;11.60;99.90;;;;;;5003229;28;20042;-82
2023/03/30 01:44:01;;;;;;;9.60;5.30;;;11.60;99.90;;;;;;4994213;28;20415;-83
2023/03/30 01:46:32;;;;;;;11.32;5.80;;;11.60;99.90;;;;;;4994595;28;20513;-83
2023/03/30 01:49:26;;;;;;;10.27;5.50;;;11.70;99.90;;;;;;4994426;28;20182;-83
2023/03/30 01:52:03;;;;;;;10.32;5.80;;;11.80;99.90;;;;;;4957360;28;20486;-83
2023/03/30 01:54:33;;;;;;;10.25;5.78;;;11.70;99.90;;;;;;4999686;28;20046;-82
2023/03/30 01:57:28;;;;;;;10.57;5.68;;;11.70;99.90;;;;;;5009257;28;20172;-83
2023/03/30 02:00:00;;;;;;;9.95;5.80;;;11.70;99.90;;;;;;5028361;28;20034;-83
2023/03/30 02:02:29;;;;;;;11.18;5.90;;;11.60;99.90;;;;;;5013007;28;20478;-83
2023/03/30 02:04:59;;;;;;;10.80;5.85;;;11.60;99.90;;;;;;5003118;28;20607;-83
2023/03/30 02:07:29;;;;;;;11.38;6.20;;;11.70;99.90;;;;;;4980182;28;20041;-82
2023/03/30 02:10:00;;;;;;;10.55;5.78;;;11.60;99.90;;;;;;5002824;28;20076;-82
2023/03/30 02:12:29;;;;;;;11.80;6.00;;;11.70;99.90;;;;;;4997119;28;20501;-82
2023/03/30 02:14:59;;;;;;;12.38;5.65;;;11.70;99.90;;;;;;4981526;28;20042;-82
2023/03/30 02:17:28;;;;;;;8.68;5.20;;;11.70;99.90;;;;;;4999394;28;20081;-82
2023/03/30 02:19:56;;;;;;;9.60;5.50;;;11.70;99.90;;;;;;5030963;28;20485;-83
2023/03/30 02:22:25;;;;;;;11.98;5.70;;;11.70;99.90;;;;;;5012513;28;20038;-82
2023/03/30 02:24:54;;;;;;;11.27;5.40;;;11.70;99.90;;;;;;5014039;28;20041;-82
2023/03/30 02:27:22;;;;;;;10.88;5.65;;;11.70;99.90;;;;;;5013856;28;20436;-82
2023/03/30 02:29:48;;;;;;;10.77;5.30;;;11.70;99.90;;;;;;4997395;28;20385;-82
2023/03/30 02:32:18;;;;;;;11.00;5.47;;;11.80;99.90;;;;;;5012888;28;20052;-84
2023/03/30 02:35:17;;;;;;;8.13;4.93;;;11.80;99.90;;;;;;5012735;28;20069;-82
2023/03/30 02:38:13;;;;;;;9.32;5.15;;;11.80;99.90;;;;;;5003767;28;20501;-83
2023/03/30 02:40:51;;;;;;;10.20;4.63;;;11.80;99.90;;;;;;4996033;28;20060;-82
2023/03/30 02:43:22;;;;;;;8.10;4.72;;;11.80;99.90;;;;;;5012014;28;20038;-83
2023/03/30 02:45:57;;;;;;;10.32;5.07;;;11.80;99.90;;;;;;5012648;28;20501;-84
2023/03/30 02:48:26;;;;;;;10.52;4.85;;;11.80;99.90;;;;;;4979627;28;20042;-83
2023/03/30 02:51:00;;;;;;;8.80;4.50;;;11.90;99.90;;;;;;4996259;28;20040;-83
2023/03/30 02:54:08;;;;;;;10.77;4.93;;;11.90;99.90;;;;;;5011828;28;20044;-83
2023/03/30 02:57:08;;;;;;;8.68;4.60;;;11.90;99.90;;;;;;5012292;28;20052;-83
2023/03/30 02:59:44;;;;;;;9.07;4.40;;;11.90;99.90;;;;;;4996572;28;20578;-83
2023/03/30 03:02:22;;;;;;;11.02;4.88;;;12.00;99.90;;;;;;4996045;28;20493;-83
2023/03/30 03:04:51;;;;;;;10.05;4.50;;;11.90;99.90;;;;;;5020444;28;20120;-83
2023/03/30 03:07:19;;;;;;;10.63;4.68;;;11.90;99.90;;;;;;4997470;28;20042;-84
2023/03/30 03:09:45;;;;;;;10.57;4.47;;;11.80;99.90;;;;;;5029177;28;20055;-83
2023/03/30 03:12:11;;;;;;;10.05;4.45;;;11.70;99.90;;;;;;5041079;28;20122;-83
2023/03/30 03:14:37;;;;;;;10.70;4.85;;;11.70;99.90;;;;;;4980607;28;20039;-83
2023/03/30 03:17:04;;;;;;;9.93;4.38;;;11.60;99.90;;;;;;4980989;28;20045;-83
2023/03/30 03:19:31;;;;;;;10.70;4.93;;;11.60;99.90;;;;;;5000181;28;20038;-84
2023/03/30 03:21:56;;;;;;;10.15;4.60;;;11.50;99.90;;;;;;4999608;28;20045;-83
2023/03/30 03:24:22;;;;;;;8.07;4.38;;;11.50;99.90;;;;;;4999631;28;20045;-83
2023/03/30 03:26:48;;;;;;;11.18;4.57;;;11.40;99.90;;;;;;5016212;28;20124;-83
2023/03/30 03:29:14;;;;;;;8.60;4.30;;;11.40;99.90;;;;;;5016844;28;20038;-83
2023/03/30 03:31:40;;;;;;;11.23;5.00;;;11.40;99.90;;;;;;4999479;28;20153;-84
2023/03/30 03:34:06;;;;;;;9.48;4.70;;;11.30;99.90;;;;;;4983060;28;20125;-84
2023/03/30 03:36:32;;;;;;;9.25;4.50;;;11.30;99.90;;;;;;4989091;28;20693;-84
2023/03/30 03:38:58;;;;;;;10.93;4.85;;;11.30;99.90;;;;;;5013119;28;20120;-84
2023/03/30 03:41:24;;;;;;;9.20;5.03;;;12.00;99.90;;;;;;5033260;28;20119;-84
2023/03/30 03:43:49;;;;;;;9.45;4.57;;;11.30;99.90;;;;;;5017236;28;20042;-82
2023/03/30 03:46:15;;;;;;;8.30;4.35;;;11.40;99.90;;;;;;5017307;28;20180;-83
2023/03/30 03:48:41;;;;;;;9.95;4.40;;;11.40;99.90;;;;;;5017139;28;20041;-83
2023/03/30 03:51:08;;;;;;;8.50;4.43;;;11.40;99.90;;;;;;5033579;28;20041;-83
2023/03/30 03:53:35;;;;;;;9.32;4.10;;;11.50;99.90;;;;;;4983673;28;20050;-83
2023/03/30 03:56:01;;;;;;;9.60;4.20;;;11.60;99.90;;;;;;5000155;28;20069;-83
2023/03/30 03:58:28;;;;;;;10.13;4.25;;;11.60;99.90;;;;;;5016552;28;20117;-83
2023/03/30 04:00:58;;;;;;;6.57;3.88;;;11.70;99.90;;;;;;4999358;28;20089;-83
2023/03/30 04:03:24;;;;;;;9.82;4.00;;;11.90;99.90;;;;;;4998501;28;20049;-83
2023/03/30 04:05:50;;;;;;;9.13;4.38;;;11.90;99.90;;;;;;4998815;28;20054;-83
2023/03/30 04:08:16;;;;;;;9.45;4.05;;;12.00;99.90;;;;;;4997625;28;20049;-83
2023/03/30 04:10:43;;;;;;;8.63;3.95;;;12.00;99.90;;;;;;5013584;28;20627;-83
2023/03/30 04:13:09;;;;;;;9.57;4.03;;;12.00;99.90;;;;;;4994460;28;20038;-84
2023/03/30 04:15:35;;;;;;;8.38;3.88;;;12.00;99.90;;;;;;5015024;28;20500;-83
2023/03/30 04:18:01;;;;;;;7.45;3.85;;;12.00;99.90;;;;;;4984192;28;20198;-83
2023/03/30 04:20:28;;;;;;;9.40;4.07;;;12.00;99.90;;;;;;5014376;28;20038;-83
2023/03/30 04:22:55;;;;;;;9.75;3.70;;;12.00;99.90;;;;;;4997342;28;20116;-83
2023/03/30 04:25:24;;;;;;;10.48;4.10;;;12.00;99.90;;;;;;5030980;28;20042;-83
2023/03/30 04:27:54;;;;;;;8.15;3.75;;;12.00;99.90;;;;;;4982523;28;20072;-83
2023/03/30 04:30:21;;;;;;;12.35;4.00;;;12.00;99.90;;;;;;5015643;28;20045;-83
2023/03/30 04:33:01;;;;;;;10.15;4.15;;;11.90;99.90;;;;;;4999179;28;20559;-83
2023/03/30 04:35:28;;;;;;;9.05;4.07;;;12.00;99.90;;;;;;5001366;28;20049;-83
2023/03/30 04:37:56;;;;;;;9.93;4.35;;;12.00;99.90;;;;;;5031218;28;20045;-83
2023/03/30 04:40:23;;;;;;;11.80;4.32;;;12.00;99.90;;;;;;4991407;28;20030;-83
2023/03/30 04:42:49;;;;;;;10.73;4.28;;;11.90;99.90;;;;;;4998372;28;20093;-83
2023/03/30 04:45:17;;;;;;;10.13;4.22;;;12.00;99.90;;;;;;4993666;28;20038;-83
2023/03/30 04:47:44;;;;;;;9.80;4.50;;;11.90;99.90;;;;;;4995051;28;20045;-82
2023/03/30 04:50:12;;;;;;;12.27;4.30;;;11.90;99.90;;;;;;5004118;28;20030;-89
2023/03/30 04:52:38;;;;;;;8.52;3.80;;;11.80;99.90;;;;;;4965510;28;20073;-84
2023/03/30 04:55:04;;;;;;;10.68;4.25;;;11.90;99.90;;;;;;5001476;28;20074;-86
2023/03/30 04:57:30;;;;;;;9.90;4.20;;;11.90;99.90;;;;;;4984250;28;20033;-92
2023/03/30 04:59:55;;;;;;;8.03;4.17;;;12.30;99.90;;;;;;4957810;28;1248616;-93
2023/03/30 05:02:21;;;;;;;10.82;4.32;;;11.80;99.90;;;;;;4989071;28;20045;-93
2023/03/30 05:04:48;;;;;;;9.52;4.35;;;11.80;99.90;;;;;;4985963;28;20088;-95
2023/03/30 05:07:13;;;;;;;8.63;4.22;;;11.80;99.90;;;;;;5005706;28;20042;-94
2023/03/30 05:09:39;;;;;;;9.48;4.30;;;11.70;99.90;;;;;;4986006;28;20046;-92
2023/03/30 05:12:05;;;;;;;9.98;4.20;;;11.80;99.90;;;;;;5001700;28;20087;-94
2023/03/30 05:14:31;;;;;;;11.90;4.72;;;11.70;99.90;;;;;;4985069;28;20053;-93
2023/03/30 05:16:57;;;;;;;8.82;4.25;;;11.70;99.90;;;;;;5016894;28;20571;-93
2023/03/30 05:19:24;;;;;;;8.50;3.88;;;11.70;99.90;;;;;;4995322;28;20039;-94
2023/03/30 05:21:50;;;;;;;12.75;4.20;;;11.70;99.90;;;;;;5033328;28;20041;-92
2023/03/30 05:24:16;;;;;;;8.30;4.28;;;11.70;99.90;;;;;;4984713;28;20453;-93
2023/03/30 05:26:42;;;;;;;8.88;4.00;;;11.70;99.90;;;;;;4983391;28;20049;-90
2023/03/30 05:29:08;;;;;;;8.82;3.80;;;11.70;99.90;;;;;;4992463;28;20034;-84
2023/03/30 05:31:34;;;;;;;8.27;3.90;;;11.70;99.90;;;;;;4980291;28;20056;-88
2023/03/30 05:34:00;;;;;;;8.00;3.60;;;11.80;99.90;;;;;;4992505;28;20120;-89
2023/03/30 05:36:27;;;;;;;9.98;3.60;;;11.80;99.90;;;;;;5029196;28;20030;-90
2023/03/30 05:38:52;;;;;;;9.07;3.58;;;11.70;99.90;;;;;;5015827;28;20076;-87
2023/03/30 05:41:18;;;;;;;9.70;3.67;;;11.80;99.90;;;;;;4980445;28;20048;-87
2023/03/30 05:43:44;;;;;;;7.97;3.58;;;11.70;99.90;;;;;;4982896;28;20576;-88
2023/03/30 05:46:10;;;;;;;9.60;3.50;;;11.80;99.90;;;;;;5006642;28;20551;-87
2023/03/30 05:48:36;;;;;;;8.43;3.63;;;11.80;99.90;;;;;;4998777;28;20537;-88
2023/03/30 05:51:01;;;;;;;9.20;3.42;;;11.80;99.90;;;;;;4997808;28;20037;-88
2023/03/30 05:53:27;;;;;;;9.52;3.70;;;11.80;99.90;;;;;;5013203;28;20042;-87
2023/03/30 05:55:53;;;;;;;8.40;3.70;;;11.90;99.90;;;;;;4997758;28;20037;-87
2023/03/30 05:58:19;;;;;;;7.85;3.50;;;11.90;99.90;;;;;;4996642;28;20044;-86
2023/03/30 06:00:47;;;;;;;8.77;3.42;;;11.90;99.90;;;;;;5013327;28;20519;-87
2023/03/30 06:03:13;;;;;;;9.65;3.80;;;12.00;99.90;;;;;;4997552;28;20120;-87
2023/03/30 06:05:42;;;;;;;8.40;3.65;;;12.00;99.90;;;;;;4998816;28;20038;-87
2023/03/30 06:08:09;;;;;;;9.45;3.63;;;12.00;99.90;;;;;;5014817;28;20042;-88
2023/03/30 06:10:36;;;;;;;8.80;3.50;;;12.10;99.90;;;;;;4981569;28;20034;-88
2023/03/30 06:13:03;;;;;;;8.80;3.47;;;12.20;99.90;;;;;;5012945;28;20034;-87
2023/03/30 06:15:29;;;;;;;10.50;3.55;;;12.20;99.90;;;;;;4968834;28;21071;-88
2023/03/30 06:17:55;;;;;;;8.52;3.67;;;12.20;99.90;;;;;;5023145;28;20120;-88
2023/03/30 06:20:23;;;;;;;8.02;3.45;;;12.30;99.90;;;;;;4982484;28;20168;-87
2023/03/30 06:22:50;;;;;;;8.98;3.55;;;12.40;99.90;;;;;;5030098;28;20042;-86
2023/03/30 06:25:17;;;;;;;7.05;3.17;;;12.50;99.90;;;;;;4997978;28;20172;-86
2023/03/30 06:27:43;;;;;;;8.43;3.20;;;12.50;99.90;;;;;;4998244;28;20054;-85
2023/03/30 06:30:10;;;;;;;9.02;3.38;;;12.70;99.90;;;;;;5014293;28;20034;-86
2023/03/30 06:32:38;;;;;;;10.32;3.50;;;12.70;99.90;;;;;;5008899;28;20037;-86
2023/03/30 06:35:04;;;;;;;9.45;3.10;;;12.70;99.90;;;;;;5001059;28;20489;-87
2023/03/30 06:37:31;;;;;;;8.20;3.00;;;12.70;99.90;;;;;;4964205;28;20034;-87
2023/03/30 06:39:57;;;;;;;9.57;3.25;;;12.70;99.90;;;;;;5013572;28;20029;-87
2023/03/30 06:42:26;;;;;;;7.57;2.88;;;12.70;99.90;;;;;;4993763;28;20065;-88
2023/03/30 06:44:52;;;;;;;8.27;3.13;;;12.80;99.90;;;;;;5011281;28;21074;-87
2023/03/30 06:47:18;;;;;;;9.25;3.05;;;12.80;99.90;;;;;;4981840;28;20485;-88
2023/03/30 06:49:44;;;;;;;9.60;3.20;;;12.80;99.90;;;;;;5014483;28;20045;-88
2023/03/30 06:52:11;;;;;;;10.85;3.13;;;12.80;99.90;;;;;;5002903;28;20064;-88
2023/03/30 06:54:38;;;;;;;8.75;2.90;;;12.80;99.90;;;;;;4982866;28;20644;-85
2023/03/30 06:57:04;;;;;;;13.50;3.13;;;12.80;99.90;;;;;;4981748;28;20488;-85
2023/03/30 06:59:31;;;;;;;8.48;2.65;;;12.70;99.90;;;;;;4963270;28;20030;-84
2023/03/30 07:01:58;;;;;;;8.55;2.90;;;12.90;99.90;;;;;;4988965;28;20077;-84
2023/03/30 07:04:24;;;;;;;8.50;2.92;;;12.90;99.90;;;;;;4952741;28;20578;-84
2023/03/30 07:06:50;;;;;;;9.75;3.30;;;12.80;99.90;;;;;;4942492;28;20062;-84
2023/03/30 07:09:17;;;;;;;12.38;3.10;;;12.90;99.90;;;;;;4958978;28;20042;-84
2023/03/30 07:11:43;;;;;;;9.10;2.90;;;12.90;99.90;;;;;;4941694;28;20057;-85
2023/03/30 07:14:11;;;;;;;10.27;2.65;;;12.90;99.90;;;;;;4973872;28;20042;-87
2023/03/30 07:16:37;;;;;;;9.48;2.55;;;13.00;99.90;;;;;;4958309;28;20557;-86
2023/03/30 07:19:04;;;;;;;11.38;2.78;;;13.10;99.90;;;;;;4948031;28;20047;-85
2023/03/30 07:21:31;;;;;;;9.52;2.40;;;13.10;99.90;;;;;;4942306;28;20046;-84
2023/03/30 07:24:00;;;;;;;11.68;2.80;;;13.10;99.90;;;;;;4959647;28;20039;-86
2023/03/30 07:26:27;;;;;;;11.32;2.88;;;13.10;99.90;;;;;;4987757;28;20142;-87
2023/03/30 07:28:55;;;;;;;11.32;2.83;;;13.10;99.90;;;;;;4956947;28;20121;-88
2023/03/30 07:31:23;;;;;;;11.02;2.50;;;13.10;99.90;;;;;;4969730;28;20039;-88
2023/03/30 07:33:49;;;;;;;12.02;2.70;;;13.10;99.90;;;;;;4941510;28;20038;-88
2023/03/30 07:36:15;;;;;;;9.35;2.55;;;13.10;99.90;;;;;;4988739;28;20043;-87
2023/03/30 07:38:41;;;;;;;13.65;2.83;;;13.10;99.90;;;;;;4972112;28;20117;-86
2023/03/30 07:41:09;;;;;;;13.40;2.85;;;13.10;99.90;;;;;;4972998;28;20130;-85
2023/03/30 07:43:36;;;;;;;13.55;2.80;;;13.10;99.90;;;;;;4960235;28;20170;-88
2023/03/30 07:46:02;;;;;;;13.75;3.00;;;13.00;99.90;;;;;;4957352;28;20055;-87
2023/03/30 07:48:28;;;;;;;12.88;3.10;;;13.10;99.90;;;;;;4954355;28;20039;-88
2023/03/30 07:51:09;;;;;;;12.95;2.88;;;13.10;99.90;;;;;;4956210;28;20061;-89
2023/03/30 07:53:36;;;;;;;14.57;3.00;;;13.10;99.90;;;;;;4954701;28;20043;-86
2023/03/30 07:56:02;;;;;;;13.45;2.97;;;13.10;99.90;;;;;;5005159;28;20043;-86
2023/03/30 07:58:28;;;;;;;11.60;2.90;;;13.20;99.90;;;;;;4959244;28;20066;-85
2023/03/30 08:00:55;;;;;;;14.93;3.10;;;13.20;99.90;;;;;;4983514;28;20054;-87
2023/03/30 08:03:21;;;;;;;13.63;3.22;;;13.30;99.90;;;;;;5014415;28;20046;-88
2023/03/30 08:05:55;;;;;;;14.13;3.00;;;13.30;99.90;;;;;;4978427;28;20050;-87
2023/03/30 08:08:22;;;;;;;17.45;3.40;;;13.30;99.90;;;;;;4966510;28;20493;-87
2023/03/30 08:10:48;;;;;;;15.23;3.63;;;13.40;99.90;;;;;;4983588;28;20034;-86
2023/03/30 08:13:14;;;;;;;15.82;3.25;;;13.30;99.90;;;;;;4974717;28;20030;-85
2023/03/30 08:15:40;;;;;;;14.05;3.22;;;13.30;99.90;;;;;;4986603;28;20382;-86
2023/03/30 08:18:06;;;;;;;17.90;3.50;;;13.30;99.90;;;;;;4989842;28;20053;-86
2023/03/30 08:20:36;;;;;;;15.05;3.17;;;13.40;99.90;;;;;;5009702;28;20045;-87
2023/03/30 08:23:05;;;;;;;14.68;3.28;;;13.20;99.90;;;;;;4991301;28;20042;-88
2023/03/30 08:25:31;;;;;;;16.08;3.05;;;13.10;99.90;;;;;;5004866;28;20487;-88
2023/03/30 08:27:57;;;;;;;18.40;3.90;;;13.10;99.90;;;;;;4972457;28;20042;-87
2023/03/30 08:30:23;;;;;;;16.92;3.75;;;13.00;99.90;;;;;;4992576;28;20054;-88
2023/03/30 08:32:51;;;;;;;16.95;3.88;;;12.90;99.90;;;;;;4981190;28;20053;-87
2023/03/30 08:35:18;;;;;;;16.40;3.58;;;12.90;99.90;;;;;;4954971;28;20054;-87
2023/03/30 08:37:44;;;;;;;16.38;3.67;;;12.90;99.90;;;;;;4954103;28;20046;-87
2023/03/30 08:40:12;;;;;;;18.05;3.95;;;12.90;99.90;;;;;;4973886;28;20379;-87
2023/03/30 08:42:46;;;;;;;16.15;3.78;;;13.00;99.90;;;;;;4992706;28;20034;-88
2023/03/30 08:45:12;;;;;;;15.65;3.70;;;13.00;99.90;;;;;;4974500;28;20054;-88
2023/03/30 08:47:42;;;;;;;17.23;4.25;;;13.00;99.90;;;;;;4955726;28;20042;-88
2023/03/30 08:50:32;;;;;;;20.95;4.18;;;13.00;99.90;;;;;;4971732;28;20043;-88
2023/03/30 08:53:03;;;;;;;16.75;4.20;;;13.10;99.90;;;;;;4990943;28;20038;-88
2023/03/30 08:55:38;;;;;;;19.58;4.03;;;13.10;99.90;;;;;;4990593;28;20042;-86
2023/03/30 08:58:22;;;;;;;17.30;3.78;;;13.00;99.90;;;;;;4983298;28;20448;-86
2023/03/30 09:01:09;;;;;;;17.20;3.95;;;12.90;99.90;;;;;;5018952;28;20502;-86
2023/03/30 09:04:03;;;;;;;14.73;3.60;;;12.80;99.90;;;;;;4976287;28;20128;-87
2023/03/30 09:06:51;;;;;;;23.48;4.35;;;12.60;99.90;;;;;;4991895;28;20062;-88
2023/03/30 09:09:28;;;;;;;20.20;4.32;;;12.60;99.90;;;;;;4973840;28;20050;-89
2023/03/30 09:12:17;;;;;;;18.60;4.13;;;12.50;99.90;;;;;;4976245;28;20162;-88
2023/03/30 09:14:52;;;;;;;22.77;4.55;;;12.50;99.90;;;;;;4966473;28;20502;-89
2023/03/30 09:17:24;;;;;;;21.17;4.72;;;12.50;99.90;;;;;;4969897;28;20491;-86
2023/03/30 09:19:59;;;;;;;20.73;4.65;;;12.70;99.90;;;;;;4971689;28;20104;-87
2023/03/30 09:22:31;;;;;;;20.65;5.03;;;13.00;99.90;;;;;;4973414;28;20569;-86
2023/03/30 09:24:58;;;;;;;23.27;5.10;;;13.30;99.90;;;;;;4971815;28;20482;-85
2023/03/30 09:27:51;;;;;;;23.77;4.90;;;13.60;99.90;;;;;;5010216;28;20498;-85
2023/03/30 09:30:20;;;;;;;19.95;4.72;;;13.60;99.90;;;;;;4987581;28;20529;-86
2023/03/30 09:33:03;;;;;;;21.10;4.50;;;13.80;99.90;;;;;;4990971;28;20039;-85
2023/03/30 09:35:40;;;;;;;19.77;4.32;;;13.90;99.90;;;;;;4990263;28;20039;-87
2023/03/30 09:38:12;;;;;;;17.55;4.55;;;13.90;99.90;;;;;;4982078;28;20413;-86
2023/03/30 09:41:06;;;;;;;17.65;4.03;;;13.90;99.90;;;;;;4958827;28;20035;-87
2023/03/30 09:43:36;;;;;;;19.00;3.70;;;14.00;99.90;;;;;;4958776;28;20055;-86
2023/03/30 09:46:05;;;;;;;19.92;3.97;;;14.00;99.90;;;;;;4983604;28;20410;-86
2023/03/30 09:48:39;;;;;;;20.05;4.15;;;13.90;99.90;;;;;;4975408;28;20099;-87
2023/03/30 09:51:18;;;;;;;18.00;3.83;;;13.80;99.90;;;;;;4958453;28;20050;-85
2023/03/30 09:53:46;;;;;;;20.70;4.05;;;13.70;99.90;;;;;;4959189;28;20407;-86
2023/03/30 09:56:28;;;;;;;16.83;3.53;;;13.80;99.90;;;;;;4959425;28;20050;-88
2023/03/30 09:58:54;;;;;;;17.42;3.63;;;14.00;99.90;;;;;;4980880;28;20393;-86
2023/03/30 10:01:23;;;;;;;16.75;3.95;;;14.00;99.90;;;;;;4961021;28;20137;-88
2023/03/30 10:04:08;;;;;;;19.00;3.83;;;13.90;99.90;;;;;;4957958;28;20398;-88
2023/03/30 10:06:48;;;;;;;17.80;3.65;;;13.90;99.90;;;;;;4973671;28;20802;-90
2023/03/30 10:09:23;;;;;;;15.95;3.60;;;13.80;99.90;;;;;;4972387;28;20561;-88
2023/03/30 10:11:51;;;;;;;15.63;3.10;;;13.80;99.90;;;;;;4949782;28;20054;-88
2023/03/30 10:14:36;;;;;;;16.67;3.30;;;13.70;99.90;;;;;;4986141;28;20078;-90
2023/03/30 10:17:03;;;;;;;15.82;3.45;;;13.70;99.90;;;;;;4976041;28;20058;-91
2023/03/30 10:19:34;;;;;;;15.88;3.40;;;13.80;99.90;;;;;;4975425;28;20354;-91
2023/03/30 10:22:03;;;;;;;15.50;3.20;;;13.80;99.90;;;;;;4971371;28;20105;-91
2023/03/30 10:24:32;;;;;;;21.83;3.80;;;13.80;99.90;;;;;;4970207;28;20042;-92
2023/03/30 10:27:12;;;;;;;14.27;3.40;;;13.80;99.90;;;;;;4969926;28;20069;-91
2023/03/30 10:29:45;;;;;;;16.83;3.80;;;13.70;99.90;;;;;;4966322;28;20050;-91
2023/03/30 10:32:16;;;;;;;18.38;3.60;;;13.70;99.90;;;;;;4985496;28;20500;-91
2023/03/30 10:34:54;;;;;;;12.77;2.47;;;13.70;99.90;;;;;;4986511;28;20046;-91
2023/03/30 10:37:37;;;;;;;17.10;3.33;;;13.70;99.90;;;;;;4986705;28;20086;-92
2023/03/30 10:40:14;;;;;;;13.35;3.00;;;13.70;99.90;;;;;;4961851;28;20150;-92
2023/03/30 10:42:46;;;;;;;12.32;2.60;;;13.80;99.90;;;;;;4959307;28;20042;-90
2023/03/30 10:45:14;;;;;;;;;;;14.00;99.90;;;;;;4967694;28;20557;-84
2023/03/30 10:47:46;;;;;;;11.32;2.22;;;14.30;99.90;;;;;;4953684;28;19917;-84
2023/03/30 10:50:39;;;;;;;10.15;2.22;;;14.40;99.90;;;;;;4970707;28;20042;-82
2023/03/30 10:53:36;;;;;;;13.63;2.90;;;14.30;99.90;;;;;;4977874;28;20051;-82
2023/03/30 10:56:11;;;;;;;13.50;2.45;;;14.30;99.90;;;;;;4973896;28;20490;-83
2023/03/30 10:58:56;;;;;;;13.70;3.03;;;14.30;99.90;;;;;;4984143;28;20509;-83
2023/03/30 11:01:28;;;;;;;11.10;2.60;;;14.20;99.90;;;;;;4975146;28;20407;-82
2023/03/30 11:04:02;;;;;;;11.57;2.78;;;14.20;99.90;;;;;;4990405;28;20089;-82
2023/03/30 11:06:33;;;;;;;11.40;2.72;;;14.10;99.90;;;;;;4957358;28;20050;-83
2023/03/30 11:09:03;;;;;;;11.43;2.50;;;14.10;99.90;;;;;;4972624;28;20487;-82
2023/03/30 11:11:38;;;;;;;14.23;3.13;;;14.00;99.90;;;;;;4974278;28;20293;-82
2023/03/30 11:14:17;;;;;;;12.50;2.97;;;14.00;99.90;;;;;;4975221;28;20490;-82
2023/03/30 11:16:56;;;;;;;14.27;3.15;;;13.90;99.90;;;;;;4969700;28;20383;-82
2023/03/30 11:19:24;;;;;;;15.02;2.90;;;13.90;99.90;;;;;;5004721;28;20046;-82
2023/03/30 11:22:27;;;;;;;12.68;2.80;;;14.00;99.90;;;;;;4987139;28;20047;-82
2023/03/30 11:24:56;;;;;;;13.70;2.90;;;14.10;99.90;;;;;;4970289;28;20050;-83
2023/03/30 11:27:38;;;;;;;12.25;2.60;;;14.10;99.90;;;;;;4984921;28;20046;-83
2023/03/30 11:30:07;;;;;;;;;;;14.20;99.90;;;;;;5003080;28;20454;-80
2023/03/30 11:32:49;;;;;;;11.52;2.70;;;14.30;99.90;;;;;;4989542;28;19969;-82
2023/03/30 11:38:13;;;;;;;13.38;2.80;;;14.30;99.90;;;;;;5030820;28;20049;-81
2023/03/30 11:40:50;;;;;;;15.40;3.25;;;14.30;99.90;;;;;;5022096;28;20050;-80
2023/03/30 11:43:22;;;;;;;14.32;2.90;;;14.30;99.90;;;;;;5006064;28;20045;-79
2023/03/30 11:45:55;;;;;;;12.43;2.90;;;14.30;99.90;;;;;;5040781;28;20054;-80
2023/03/30 11:48:31;;;;;;;12.60;2.85;;;14.30;99.90;;;;;;5026412;22;20149;-82
2023/03/30 11:51:12;;;;;;;12.15;2.65;;;14.30;99.90;;;;;;4998329;28;20057;-81
2023/03/30 11:54:09;;;;;;;11.98;2.72;;;14.40;99.90;;;;;;4993223;28;20049;-80
2023/03/30 11:56:45;;;;;;;14.70;3.03;;;14.60;99.90;;;;;;5012533;28;20046;-79
2023/03/30 11:59:29;;;;;;;13.05;3.25;;;14.80;99.90;;;;;;5033591;28;20132;-82
2023/03/30 12:02:23;;;;;;;15.63;3.60;;;15.20;99.90;;;;;;5014512;28;20048;-81
2023/03/30 12:04:58;;;;;;;16.70;3.47;;;15.50;99.90;;;;;;5031039;28;20050;-81
2023/03/30 12:07:55;;;;;;;15.45;2.85;;;15.60;99.90;;;;;;5031020;28;20042;-80
2023/03/30 12:10:24;;;;;;;14.98;3.22;;;15.50;99.90;;;;;;4996279;28;20065;-81
2023/03/30 12:12:54;;;;;;;13.65;3.15;;;15.50;99.90;;;;;;5024917;28;20042;-82
2023/03/30 12:15:40;;;;;;;13.25;3.20;;;15.30;99.90;;;;;;5012262;28;20107;-82
2023/03/30 12:18:34;;;;;;;13.55;3.00;;;15.20;99.90;;;;;;5023139;28;20068;-82
2023/03/30 12:21:15;;;;;;;14.15;2.97;;;15.40;99.90;;;;;;5013984;28;20053;-81
2023/03/30 12:23:50;;;;;;;18.75;3.88;;;15.40;99.90;;;;;;5012425;28;20581;-81
2023/03/30 12:26:28;;;;;;;13.43;2.95;;;15.30;99.90;;;;;;5013778;28;20085;-80
2023/03/30 12:28:57;;;;;;;14.25;3.28;;;15.20;99.90;;;;;;4995916;28;20046;-82
2023/03/30 12:31:43;;;;;;;15.13;3.15;;;15.20;99.90;;;;;;5024187;28;20046;-81
2023/03/30 12:34:09;;;;;;;15.65;2.75;;;15.10;99.90;;;;;;5013374;28;20081;-81
2023/03/30 12:36:38;;;;;;;16.50;3.50;;;15.00;99.90;;;;;;4994066;28;20057;-80
2023/03/30 12:39:13;;;;;;;15.10;3.38;;;15.00;99.90;;;;;;5010628;28;20089;-79
2023/03/30 12:41:47;;;;;;;13.95;3.40;;;15.00;99.90;;;;;;4996182;28;20042;-80
2023/03/30 12:44:51;;;;;;;15.88;3.67;;;15.00;99.90;;;;;;4996109;28;20397;-81
2023/03/30 12:47:21;;;;;;;16.83;3.53;;;14.80;99.90;;;;;;5012515;28;20104;-81
2023/03/30 12:50:16;;;;;;;17.63;3.70;;;14.70;99.90;;;;;;5023692;28;20120;-81
2023/03/30 12:53:06;;;;;;;17.48;3.53;;;14.50;99.90;;;;;;4995466;28;20100;-80
2023/03/30 12:55:40;;;;;;;14.98;3.20;;;14.50;99.90;;;;;;5010790;28;20053;-80
2023/03/30 12:58:42;;;;;;;16.88;3.30;;;14.70;99.90;;;;;;5011332;28;20465;-78
2023/03/30 13:01:30;;;;;;;12.48;2.70;;;14.80;99.90;;;;;;5013501;28;20405;-80
2023/03/30 13:04:18;;;;;;;14.75;3.20;;;14.70;99.90;;;;;;5008889;28;20046;-80
2023/03/30 13:06:57;;;;;;;13.02;3.20;;;14.80;99.90;;;;;;5012223;28;20050;-82
2023/03/30 13:09:26;;;;;;;15.20;3.38;;;14.70;99.90;;;;;;5009681;28;20045;-79